Time;durP1;ratioP1;P1;durP2;ratioP2;P2;SDS_P1;SDS_P2;PMS_P1;PMS_P2;Temp;Humidity;BMP_temperature;BMP_pressure;BME280_temperature;BME280_humidity;BME280_pressure;Samples;Min_cycle;Max_cycle;Signal;HPM_P1;HPM_P2
2022/02/14 00:02:05;;;;;;;8.48;3.03;;;9.60;83.70;;;;;;4992774;28;20046;-73
2022/02/14 00:04:31;;;;;;;7.68;3.03;;;9.60;83.70;;;;;;4992397;28;20084;-73
2022/02/14 00:06:57;;;;;;;6.35;2.60;;;9.50;83.70;;;;;;4975937;28;20408;-73
2022/02/14 00:09:23;;;;;;;7.78;2.55;;;9.60;83.80;;;;;;4993088;28;20027;-74
2022/02/14 00:11:49;;;;;;;8.50;3.03;;;9.60;83.70;;;;;;4991745;28;20406;-73
2022/02/14 00:14:14;;;;;;;4.55;2.63;;;9.60;83.70;;;;;;4996833;28;20110;-74
2022/02/14 00:16:40;;;;;;;10.18;3.10;;;9.60;83.50;;;;;;4994206;28;20035;-73
2022/02/14 00:19:06;;;;;;;7.18;2.90;;;9.60;83.50;;;;;;4994985;28;20080;-73
2022/02/14 00:21:31;;;;;;;6.55;2.83;;;9.60;83.50;;;;;;4995036;28;20061;-74
2022/02/14 00:23:57;;;;;;;9.15;3.10;;;9.60;83.50;;;;;;4993868;28;20045;-74
2022/02/14 00:26:23;;;;;;;11.60;2.45;;;9.60;83.40;;;;;;4994981;28;20112;-73
2022/02/14 00:28:49;;;;;;;7.90;2.72;;;9.60;83.30;;;;;;4995112;28;20077;-74
2022/02/14 00:31:14;;;;;;;5.03;2.25;;;9.60;83.10;;;;;;4993874;28;20361;-74
2022/02/14 00:33:40;;;;;;;7.30;2.65;;;9.60;83.10;;;;;;4995874;28;20041;-73
2022/02/14 00:36:05;;;;;;;13.73;2.95;;;9.60;83.10;;;;;;4995493;28;20022;-73
2022/02/14 00:38:31;;;;;;;7.15;2.40;;;9.60;83.10;;;;;;4993392;28;20030;-72
2022/02/14 00:40:56;;;;;;;10.65;2.95;;;9.70;83.10;;;;;;4997990;28;20026;-73
2022/02/14 00:43:22;;;;;;;9.68;2.83;;;9.70;82.90;;;;;;4976999;28;20511;-73
2022/02/14 00:45:49;;;;;;;7.40;2.42;;;9.80;83.00;;;;;;4991479;28;20034;-73
2022/02/14 00:48:15;;;;;;;5.47;2.20;;;9.70;82.80;;;;;;4992753;28;20221;-74
2022/02/14 00:50:41;;;;;;;7.43;2.92;;;9.80;82.70;;;;;;4990904;28;20061;-74
2022/02/14 00:53:08;;;;;;;8.60;2.50;;;9.80;82.60;;;;;;4991584;28;20460;-74
2022/02/14 00:55:34;;;;;;;3.88;1.85;;;9.80;82.60;;;;;;4991678;28;20400;-74
2022/02/14 00:58:00;;;;;;;7.45;2.33;;;9.80;82.70;;;;;;4973904;28;20030;-73
2022/02/14 01:00:26;;;;;;;5.95;2.38;;;9.80;82.60;;;;;;4991132;28;20030;-73
2022/02/14 01:02:52;;;;;;;4.35;2.40;;;9.80;82.60;;;;;;4991428;28;20037;-74
2022/02/14 01:05:18;;;;;;;7.75;2.70;;;9.80;82.60;;;;;;4991266;28;20034;-74
2022/02/14 01:07:43;;;;;;;15.00;3.25;;;9.80;82.50;;;;;;4991663;28;20038;-73
2022/02/14 01:10:10;;;;;;;4.82;2.33;;;9.80;82.60;;;;;;4991124;28;20034;-73
2022/02/14 01:12:37;;;;;;;14.40;2.72;;;9.80;82.50;;;;;;4991019;28;20022;-73
2022/02/14 01:15:05;;;;;;;13.73;2.92;;;9.80;82.60;;;;;;4991748;28;20018;-74
2022/02/14 01:17:33;;;;;;;8.32;2.35;;;9.80;82.60;;;;;;4991202;28;20023;-74
2022/02/14 01:19:59;;;;;;;5.72;2.28;;;9.80;82.70;;;;;;4991109;28;20104;-74
2022/02/14 01:22:25;;;;;;;6.97;2.42;;;9.70;82.60;;;;;;4990961;28;20081;-72
2022/02/14 01:24:50;;;;;;;7.32;2.70;;;9.80;82.70;;;;;;4990884;28;20050;-74
2022/02/14 01:27:16;;;;;;;9.25;2.47;;;9.80;82.80;;;;;;4991365;28;20044;-74
2022/02/14 01:29:41;;;;;;;11.57;2.83;;;9.80;82.80;;;;;;4990669;28;20042;-74
2022/02/14 01:32:07;;;;;;;5.63;2.30;;;9.80;82.80;;;;;;4990775;28;20061;-74
2022/02/14 01:34:33;;;;;;;8.55;2.85;;;9.80;82.80;;;;;;4990823;28;20034;-75
2022/02/14 01:36:58;;;;;;;5.50;2.17;;;9.80;82.80;;;;;;4990926;28;20039;-74
2022/02/14 01:39:25;;;;;;;4.40;2.60;;;9.80;82.80;;;;;;4991330;28;20514;-74
2022/02/14 01:41:51;;;;;;;3.60;2.13;;;9.80;82.90;;;;;;4991063;28;20376;-73
2022/02/14 01:44:39;;;;;;;6.05;2.25;;;9.90;83.10;;;;;;4991097;28;20022;-74
2022/02/14 01:47:08;;;;;;;;;;;9.70;83.00;;;;;;4991249;28;20065;-73
2022/02/14 01:49:34;;;;;;;7.30;2.60;;;9.70;83.20;;;;;;4990636;28;20378;-73
2022/02/14 01:51:59;;;;;;;6.40;2.25;;;9.60;83.10;;;;;;4990652;28;20042;-73
2022/02/14 01:54:25;;;;;;;5.30;2.17;;;9.60;83.20;;;;;;4991222;28;20041;-75
2022/02/14 01:56:51;;;;;;;8.00;2.95;;;9.70;83.20;;;;;;4990818;28;20042;-73
2022/02/14 01:59:16;;;;;;;9.98;3.20;;;9.60;83.20;;;;;;4990878;28;20129;-74
2022/02/14 02:01:42;;;;;;;5.88;2.55;;;9.60;83.10;;;;;;4990714;28;20567;-75
2022/02/14 02:04:12;;;;;;;6.88;2.60;;;9.60;83.20;;;;;;4973630;28;20064;-74
2022/02/14 02:06:37;;;;;;;9.32;2.63;;;9.50;83.30;;;;;;4990595;28;20038;-74
2022/02/14 02:09:03;;;;;;;8.52;2.63;;;9.60;83.40;;;;;;4991087;28;20405;-74
2022/02/14 02:14:20;;;;;;;5.10;2.10;;;9.50;83.30;;;;;;4994411;28;20049;-74
2022/02/14 02:16:45;;;;;;;7.97;2.40;;;9.60;83.40;;;;;;4994360;28;20042;-74
2022/02/14 02:19:11;;;;;;;10.52;2.55;;;9.50;83.40;;;;;;4994118;28;20088;-74
2022/02/14 02:21:36;;;;;;;5.35;2.55;;;9.50;83.50;;;;;;4993920;28;20042;-73
2022/02/14 02:24:07;;;;;;;14.20;2.90;;;9.50;83.40;;;;;;4994438;28;20018;-75
2022/02/14 02:26:32;;;;;;;7.43;2.28;;;9.50;83.30;;;;;;4994029;28;20269;-75
2022/02/14 02:28:58;;;;;;;7.95;2.30;;;9.60;83.40;;;;;;4993813;28;20054;-74
2022/02/14 02:31:24;;;;;;;5.35;2.40;;;9.60;83.40;;;;;;4993954;28;20085;-74
2022/02/14 02:33:49;;;;;;;5.93;2.67;;;9.60;83.30;;;;;;4993647;28;20325;-74
2022/02/14 02:36:15;;;;;;;4.90;2.20;;;9.60;83.20;;;;;;4988334;28;20065;-74
2022/02/14 02:38:41;;;;;;;5.00;2.25;;;9.60;83.10;;;;;;5013484;28;20349;-74
2022/02/14 02:41:06;;;;;;;11.95;2.55;;;9.60;83.10;;;;;;5013295;28;20029;-75
2022/02/14 02:43:32;;;;;;;4.30;2.05;;;9.70;83.10;;;;;;5013239;28;20438;-74
2022/02/14 02:45:57;;;;;;;5.40;2.50;;;9.70;83.20;;;;;;4996130;28;20084;-73
2022/02/14 02:48:23;;;;;;;4.25;2.17;;;9.60;83.10;;;;;;5013702;28;20109;-73
2022/02/14 02:51:02;;;;;;;4.75;2.08;;;9.60;83.20;;;;;;5013312;28;20033;-73
2022/02/14 02:53:28;;;;;;;7.82;2.28;;;9.70;83.30;;;;;;5013044;28;20100;-74
2022/02/14 02:55:54;;;;;;;4.43;2.20;;;9.70;83.30;;;;;;5012895;28;20026;-74
2022/02/14 02:58:20;;;;;;;5.38;2.50;;;9.60;83.30;;;;;;5012865;28;20455;-74
2022/02/14 03:00:47;;;;;;;7.35;2.30;;;9.60;83.40;;;;;;5012975;28;20037;-75
2022/02/14 03:03:12;;;;;;;6.57;2.42;;;9.60;83.50;;;;;;4996000;28;20041;-74
2022/02/14 03:05:38;;;;;;;5.45;2.13;;;9.60;83.60;;;;;;5012787;28;20030;-73
2022/02/14 03:08:04;;;;;;;5.90;2.53;;;9.60;83.70;;;;;;5012743;28;20030;-74
2022/02/14 03:10:29;;;;;;;9.38;2.25;;;9.50;83.70;;;;;;5012405;28;20439;-74
2022/02/14 03:12:55;;;;;;;9.70;2.42;;;9.50;84.30;;;;;;5012801;28;20081;-75
2022/02/14 03:15:20;;;;;;;9.82;2.92;;;9.50;83.80;;;;;;5013100;28;20309;-75
2022/02/14 03:17:46;;;;;;;12.75;2.70;;;9.50;83.80;;;;;;5012797;28;20060;-74
2022/02/14 03:20:13;;;;;;;8.05;2.55;;;9.50;83.90;;;;;;5012772;28;20030;-75
2022/02/14 03:22:38;;;;;;;7.82;2.35;;;9.40;83.80;;;;;;5011907;28;20045;-74
2022/02/14 03:25:04;;;;;;;5.45;2.28;;;9.40;83.90;;;;;;5012561;28;20018;-74
2022/02/14 03:27:30;;;;;;;8.00;2.70;;;9.40;83.90;;;;;;5012801;28;20022;-74
2022/02/14 03:29:55;;;;;;;9.90;2.42;;;9.40;83.90;;;;;;5012067;28;20125;-74
2022/02/14 03:32:21;;;;;;;5.57;2.50;;;9.40;83.90;;;;;;5012144;28;20034;-73
2022/02/14 03:34:46;;;;;;;5.53;2.25;;;9.40;83.90;;;;;;4994855;28;20052;-74
2022/02/14 03:37:12;;;;;;;8.45;2.58;;;9.40;83.90;;;;;;5012180;28;20129;-74
2022/02/14 03:39:38;;;;;;;9.77;2.88;;;9.40;83.90;;;;;;5012021;28;20036;-74
2022/02/14 03:42:03;;;;;;;9.32;2.78;;;9.30;83.90;;;;;;5012798;28;20207;-74
2022/02/14 03:44:29;;;;;;;6.15;2.35;;;9.30;83.80;;;;;;5012024;28;20431;-74
2022/02/14 03:46:54;;;;;;;4.45;2.10;;;9.40;83.90;;;;;;5011956;28;20100;-74
2022/02/14 03:49:20;;;;;;;4.90;2.13;;;9.30;83.70;;;;;;5011827;28;20061;-74
2022/02/14 03:51:46;;;;;;;7.93;2.67;;;9.30;83.80;;;;;;5011789;28;20021;-74
2022/02/14 03:54:12;;;;;;;7.22;2.33;;;9.40;83.90;;;;;;5012659;28;20030;-74
2022/02/14 03:56:37;;;;;;;9.63;2.17;;;9.30;83.70;;;;;;5012081;28;20036;-74
2022/02/14 03:59:03;;;;;;;8.88;2.40;;;9.30;83.80;;;;;;5012002;28;20040;-75
2022/02/14 04:01:29;;;;;;;6.63;2.17;;;9.30;83.80;;;;;;5011700;28;20459;-75
2022/02/14 04:03:55;;;;;;;7.72;2.20;;;9.30;83.80;;;;;;5011694;28;20033;-75
2022/02/14 04:06:20;;;;;;;5.88;2.33;;;9.30;83.80;;;;;;5012088;28;20328;-74
2022/02/14 04:08:46;;;;;;;7.10;2.35;;;9.30;83.80;;;;;;5011715;28;20088;-75
2022/02/14 04:11:11;;;;;;;3.95;2.10;;;9.30;83.80;;;;;;4994318;28;20026;-74
2022/02/14 04:13:37;;;;;;;5.63;2.60;;;9.40;83.90;;;;;;5011471;28;20444;-74
2022/02/14 04:16:03;;;;;;;6.72;2.28;;;9.30;83.70;;;;;;5011488;28;20061;-74
2022/02/14 04:18:29;;;;;;;5.93;2.67;;;9.30;83.70;;;;;;5012009;28;20337;-74
2022/02/14 04:20:55;;;;;;;4.00;2.45;;;9.30;83.60;;;;;;5012027;28;20034;-74
2022/02/14 04:23:20;;;;;;;12.70;2.78;;;9.30;83.70;;;;;;5011741;28;20049;-74
2022/02/14 04:25:46;;;;;;;11.32;2.75;;;9.30;83.70;;;;;;4993941;28;20044;-75
2022/02/14 04:28:12;;;;;;;8.40;2.67;;;9.30;83.80;;;;;;5010958;28;20030;-75
2022/02/14 04:30:37;;;;;;;9.70;2.33;;;9.30;83.70;;;;;;5011347;28;20034;-76
2022/02/14 04:33:03;;;;;;;7.25;2.40;;;9.30;83.50;;;;;;5011647;28;20120;-74
2022/02/14 04:35:30;;;;;;;7.28;2.42;;;9.30;83.50;;;;;;5010360;28;20105;-74
2022/02/14 04:37:59;;;;;;;6.72;2.72;;;9.20;83.60;;;;;;5011104;28;20037;-74
2022/02/14 04:40:31;;;;;;;4.32;1.58;;;9.20;83.70;;;;;;5011244;28;20425;-74
2022/02/14 04:42:58;;;;;;;8.25;2.15;;;9.20;83.60;;;;;;5011352;28;20037;-74
2022/02/14 04:45:25;;;;;;;9.75;2.72;;;9.20;83.40;;;;;;5011713;28;20018;-74
2022/02/14 04:47:51;;;;;;;6.50;2.15;;;9.20;83.40;;;;;;5011207;28;20037;-74
2022/02/14 04:50:17;;;;;;;7.38;2.35;;;9.20;83.40;;;;;;4993784;28;20069;-75
2022/02/14 04:52:42;;;;;;;5.57;2.15;;;9.20;83.30;;;;;;5010925;28;20526;-74
2022/02/14 04:55:08;;;;;;;7.32;2.33;;;9.20;83.30;;;;;;5011111;28;20381;-74
2022/02/14 04:57:35;;;;;;;4.53;1.98;;;9.20;83.40;;;;;;5011491;28;20018;-75
2022/02/14 05:00:01;;;;;;;7.72;2.53;;;9.10;83.30;;;;;;5011233;28;20041;-74
2022/02/14 05:02:27;;;;;;;4.30;2.17;;;9.30;83.50;;;;;;5010990;28;20037;-76
2022/02/14 05:04:53;;;;;;;6.43;2.50;;;9.10;83.30;;;;;;5010772;28;20030;-75
2022/02/14 05:07:19;;;;;;;4.88;1.90;;;9.20;83.50;;;;;;5010627;28;20440;-75
2022/02/14 05:09:44;;;;;;;4.05;2.05;;;9.20;83.50;;;;;;5010730;28;20022;-73
2022/02/14 05:12:10;;;;;;;6.18;2.35;;;9.10;83.50;;;;;;5011111;28;20440;-74
2022/02/14 05:14:35;;;;;;;5.60;2.22;;;9.10;83.60;;;;;;4993273;28;20044;-74
2022/02/14 05:17:01;;;;;;;7.82;2.40;;;9.10;83.60;;;;;;5010734;28;20106;-74
2022/02/14 05:19:27;;;;;;;6.65;1.88;;;9.10;83.70;;;;;;5010706;28;20045;-74
2022/02/14 05:21:52;;;;;;;5.03;2.35;;;9.10;83.80;;;;;;5010809;28;20033;-74
2022/02/14 05:24:18;;;;;;;8.45;2.42;;;9.10;83.80;;;;;;4993796;28;20034;-74
2022/02/14 05:26:43;;;;;;;7.60;2.40;;;9.10;83.90;;;;;;5010911;28;20380;-75
2022/02/14 05:29:09;;;;;;;10.77;2.38;;;9.10;84.00;;;;;;5010457;28;20058;-75
2022/02/14 05:31:34;;;;;;;3.05;2.13;;;9.10;84.00;;;;;;4993655;28;20049;-75
2022/02/14 05:34:00;;;;;;;4.85;1.73;;;9.10;84.60;;;;;;5010964;28;20099;-74
2022/02/14 05:36:26;;;;;;;7.93;2.33;;;9.10;84.00;;;;;;4993717;28;20026;-74
2022/02/14 05:38:51;;;;;;;8.38;2.50;;;9.20;84.00;;;;;;5010535;28;20043;-74
2022/02/14 05:41:17;;;;;;;7.13;2.00;;;9.10;83.90;;;;;;5011028;28;20049;-75
2022/02/14 05:43:42;;;;;;;5.00;1.95;;;9.20;84.00;;;;;;5011391;28;20066;-74
2022/02/14 05:46:14;;;;;;;7.75;2.63;;;9.10;84.00;;;;;;5012163;28;20025;-74
2022/02/14 05:48:41;;;;;;;8.05;2.55;;;9.10;84.00;;;;;;5014545;28;20026;-73
2022/02/14 05:51:08;;;;;;;6.82;2.65;;;9.20;84.20;;;;;;5015000;28;20096;-74
2022/02/14 05:53:35;;;;;;;7.78;2.03;;;9.30;84.30;;;;;;5015267;28;20355;-73
2022/02/14 05:56:01;;;;;;;4.43;1.67;;;9.20;84.20;;;;;;5014474;28;20037;-74
2022/02/14 05:58:26;;;;;;;7.30;2.00;;;9.20;84.20;;;;;;5014303;28;20034;-74
2022/02/14 06:00:52;;;;;;;7.25;2.10;;;9.20;84.20;;;;;;5014267;28;20454;-74
2022/02/14 06:03:17;;;;;;;4.88;1.92;;;9.20;84.20;;;;;;5014713;28;20044;-76
2022/02/14 06:05:43;;;;;;;4.80;2.05;;;9.20;84.20;;;;;;5014290;28;20030;-74
2022/02/14 06:08:09;;;;;;;10.23;2.20;;;9.30;84.10;;;;;;5013922;28;20372;-75
2022/02/14 06:10:34;;;;;;;6.45;2.35;;;9.20;84.00;;;;;;5013991;28;20052;-75
2022/02/14 06:13:00;;;;;;;7.63;2.30;;;9.30;84.70;;;;;;5013731;28;20125;-74
2022/02/14 06:15:25;;;;;;;5.47;1.98;;;9.30;84.20;;;;;;4996906;28;20475;-74
2022/02/14 06:17:52;;;;;;;6.63;1.80;;;9.30;84.10;;;;;;5013854;28;20121;-74
2022/02/14 06:20:17;;;;;;;4.20;1.98;;;9.30;84.10;;;;;;5013774;28;20029;-74
2022/02/14 06:22:43;;;;;;;7.53;1.95;;;9.30;84.20;;;;;;5013612;28;20452;-75
2022/02/14 06:25:09;;;;;;;6.28;2.50;;;9.30;84.30;;;;;;5013557;28;20359;-75
2022/02/14 06:27:34;;;;;;;4.00;1.95;;;9.30;84.30;;;;;;5014265;28;20410;-74
2022/02/14 06:30:00;;;;;;;5.25;1.77;;;9.30;84.30;;;;;;5013754;28;20539;-75
2022/02/14 06:32:26;;;;;;;9.35;1.98;;;9.40;84.50;;;;;;5014209;28;20467;-75
2022/02/14 06:34:52;;;;;;;6.07;2.13;;;9.30;84.50;;;;;;5013782;28;20065;-74
2022/02/14 06:37:18;;;;;;;6.18;2.00;;;9.40;84.70;;;;;;5013465;28;20074;-74
2022/02/14 06:39:44;;;;;;;5.85;2.08;;;9.30;84.60;;;;;;5013707;28;20022;-73
2022/02/14 06:42:10;;;;;;;3.50;2.38;;;9.40;84.80;;;;;;5014584;28;20462;-74
2022/02/14 06:44:35;;;;;;;8.52;2.03;;;9.40;84.80;;;;;;5013683;28;20037;-76
2022/02/14 06:47:02;;;;;;;5.75;2.03;;;9.40;84.90;;;;;;4996169;28;20026;-73
2022/02/14 06:49:27;;;;;;;6.15;2.30;;;9.40;85.10;;;;;;4999976;28;20049;-74
2022/02/14 06:51:53;;;;;;;5.45;1.77;;;9.30;85.10;;;;;;4993559;28;20105;-74
2022/02/14 06:54:19;;;;;;;6.55;1.92;;;9.30;85.30;;;;;;4977901;28;20034;-74
2022/02/14 06:56:44;;;;;;;6.28;2.83;;;9.30;85.50;;;;;;4994198;28;20026;-74
2022/02/14 06:59:10;;;;;;;2.70;1.38;;;9.40;85.80;;;;;;4993295;28;20546;-73
2022/02/14 07:01:36;;;;;;;13.25;2.28;;;9.40;85.90;;;;;;4976503;28;20034;-75
2022/02/14 07:04:01;;;;;;;6.93;2.15;;;9.40;86.00;;;;;;4993762;28;20053;-73
2022/02/14 07:06:28;;;;;;;5.20;2.20;;;9.40;86.00;;;;;;4995175;28;20402;-75
2022/02/14 07:08:54;;;;;;;4.82;1.88;;;9.50;86.20;;;;;;4994063;28;20037;-75
2022/02/14 07:11:20;;;;;;;7.10;2.17;;;9.50;86.30;;;;;;4995315;28;20038;-74
2022/02/14 07:13:45;;;;;;;9.07;2.28;;;9.40;86.10;;;;;;4997320;28;20062;-74
2022/02/14 07:16:11;;;;;;;6.38;1.88;;;9.50;86.20;;;;;;4995374;28;20367;-75
2022/02/14 07:18:37;;;;;;;11.57;2.28;;;9.50;86.40;;;;;;4996177;28;20038;-74
2022/02/14 07:21:03;;;;;;;7.97;2.33;;;9.50;87.10;;;;;;4995345;28;20257;-73
2022/02/14 07:23:29;;;;;;;4.53;1.80;;;9.50;86.40;;;;;;4996929;28;20034;-74
2022/02/14 07:25:55;;;;;;;4.18;1.67;;;9.60;86.40;;;;;;4995022;28;20042;-73
2022/02/14 07:28:20;;;;;;;3.75;1.70;;;9.60;86.20;;;;;;4976871;28;20542;-74
2022/02/14 07:30:45;;;;;;;3.47;2.00;;;9.70;86.40;;;;;;4994600;28;20101;-74
2022/02/14 07:33:11;;;;;;;5.13;2.15;;;9.70;86.10;;;;;;4994676;28;20097;-73
2022/02/14 07:35:37;;;;;;;6.38;2.55;;;9.70;86.80;;;;;;4995586;28;20092;-75
2022/02/14 07:38:02;;;;;;;11.80;3.35;;;9.70;86.10;;;;;;4997640;28;20054;-78
2022/02/14 07:40:29;;;;;;;5.95;2.22;;;9.70;86.20;;;;;;4993643;28;20376;-73
2022/02/14 07:42:54;;;;;;;5.95;2.30;;;9.80;86.30;;;;;;4992836;28;20217;-72
2022/02/14 07:45:21;;;;;;;6.13;2.15;;;9.80;86.30;;;;;;4993327;28;20464;-73
2022/02/14 07:47:47;;;;;;;5.43;2.30;;;9.80;86.40;;;;;;4992569;28;20022;-73
2022/02/14 07:50:13;;;;;;;6.75;2.20;;;9.80;86.40;;;;;;4993350;28;20491;-72
2022/02/14 07:52:39;;;;;;;5.22;2.67;;;9.80;86.30;;;;;;4992483;28;20327;-71
2022/02/14 07:55:06;;;;;;;13.40;2.83;;;9.90;86.40;;;;;;4992496;28;20471;-72
2022/02/14 07:57:31;;;;;;;6.50;1.90;;;9.90;86.40;;;;;;4992660;28;20333;-72
2022/02/14 07:59:58;;;;;;;5.90;1.90;;;9.90;86.30;;;;;;4992143;28;20033;-73
2022/02/14 08:02:24;;;;;;;9.38;2.20;;;9.90;86.30;;;;;;4992158;28;20034;-72
2022/02/14 08:04:49;;;;;;;9.73;2.38;;;10.00;85.30;;;;;;4992306;28;20041;-72
2022/02/14 08:07:15;;;;;;;3.78;1.98;;;10.00;85.20;;;;;;4992067;28;20034;-71
2022/02/14 08:09:41;;;;;;;3.15;1.60;;;10.10;85.60;;;;;;4991990;28;20420;-70
2022/02/14 08:12:08;;;;;;;4.07;1.88;;;10.10;85.00;;;;;;4992508;28;20031;-72
2022/02/14 08:14:39;;;;;;;5.85;2.25;;;10.10;85.00;;;;;;4992309;28;20334;-70
2022/02/14 08:17:06;;;;;;;4.40;1.98;;;10.20;85.10;;;;;;4992362;28;20391;-73
2022/02/14 08:19:33;;;;;;;5.93;1.75;;;10.20;85.00;;;;;;4992058;28;20031;-70
2022/02/14 08:21:59;;;;;;;3.75;1.83;;;10.20;85.10;;;;;;4991549;28;20122;-70
2022/02/14 08:24:24;;;;;;;6.47;2.25;;;10.30;85.10;;;;;;4992079;28;20101;-71
2022/02/14 08:26:51;;;;;;;5.93;1.77;;;10.40;85.20;;;;;;4991773;28;20034;-71
2022/02/14 08:29:16;;;;;;;4.90;1.98;;;10.40;85.30;;;;;;4991355;28;20358;-72
2022/02/14 08:31:42;;;;;;;4.55;2.03;;;10.40;85.60;;;;;;4991542;28;20042;-71
2022/02/14 08:34:08;;;;;;;3.95;1.90;;;10.40;85.50;;;;;;4991538;28;20037;-73
2022/02/14 08:36:34;;;;;;;7.60;1.85;;;10.50;85.80;;;;;;4992041;28;20033;-72
2022/02/14 08:39:00;;;;;;;5.72;1.70;;;10.50;85.70;;;;;;4991411;28;20046;-72
2022/02/14 08:41:25;;;;;;;4.60;2.25;;;10.50;85.80;;;;;;4991625;28;20102;-72
2022/02/14 08:43:51;;;;;;;10.43;2.67;;;10.60;85.90;;;;;;4991309;28;20332;-72
2022/02/14 08:46:20;;;;;;;8.80;2.00;;;10.60;85.80;;;;;;4991163;28;20050;-72
2022/02/14 08:48:52;;;;;;;8.30;1.92;;;10.70;85.80;;;;;;4991094;28;20165;-73
2022/02/14 08:51:18;;;;;;;4.35;1.75;;;10.80;85.80;;;;;;4975309;28;20034;-72
2022/02/14 08:53:45;;;;;;;9.13;2.50;;;10.80;85.60;;;;;;4991994;28;20030;-72
2022/02/14 08:56:11;;;;;;;7.75;2.70;;;10.90;85.50;;;;;;4991341;28;20027;-72
2022/02/14 08:58:39;;;;;;;5.53;1.75;;;11.00;86.20;;;;;;4991310;28;20534;-72
2022/02/14 09:01:05;;;;;;;8.88;2.22;;;11.00;85.50;;;;;;4990809;28;20026;-72
2022/02/14 09:03:30;;;;;;;8.20;1.90;;;11.10;85.50;;;;;;4992086;28;20027;-72
2022/02/14 09:05:56;;;;;;;5.68;2.30;;;11.10;85.60;;;;;;4991533;28;20050;-72
2022/02/14 09:08:24;;;;;;;3.88;1.67;;;11.30;85.50;;;;;;4990419;28;20033;-73
2022/02/14 09:10:55;;;;;;;6.65;1.60;;;11.30;85.50;;;;;;4991969;28;20034;-73
2022/02/14 09:13:22;;;;;;;4.35;1.83;;;11.40;85.30;;;;;;4992148;28;20022;-73
2022/02/14 09:15:47;;;;;;;8.65;1.60;;;11.50;85.50;;;;;;4973891;28;20259;-74
2022/02/14 09:18:15;;;;;;;10.32;2.88;;;11.60;85.00;;;;;;4991513;28;20019;-74
2022/02/14 09:20:41;;;;;;;4.23;1.63;;;11.70;84.80;;;;;;4992123;28;20035;-73
2022/02/14 09:23:07;;;;;;;7.13;1.98;;;12.00;84.80;;;;;;4995400;28;20745;-73
2022/02/14 09:25:33;;;;;;;4.10;1.73;;;12.20;84.30;;;;;;4995401;28;20498;-73
2022/02/14 09:28:00;;;;;;;12.68;2.03;;;12.40;83.90;;;;;;4995290;28;20407;-73
2022/02/14 09:30:26;;;;;;;10.07;1.70;;;12.60;83.40;;;;;;4995546;28;20125;-73
2022/02/14 09:32:51;;;;;;;12.30;1.95;;;12.80;82.80;;;;;;4994982;28;20114;-72
2022/02/14 09:35:26;;;;;;;4.80;1.98;;;13.10;82.60;;;;;;4996119;28;20030;-74
2022/02/14 09:37:57;;;;;;;5.82;2.03;;;13.50;81.80;;;;;;4995419;28;20031;-73
2022/02/14 09:40:24;;;;;;;7.82;3.40;;;13.80;80.90;;;;;;4996145;28;20032;-73
2022/02/14 09:42:52;;;;;;;3.42;1.80;;;13.80;80.50;;;;;;4978459;28;20590;-75
2022/02/14 09:45:19;;;;;;;8.27;2.17;;;13.90;80.10;;;;;;4996144;28;20109;-73
2022/02/14 09:47:45;;;;;;;4.60;1.50;;;13.80;80.50;;;;;;4978479;28;20104;-72
2022/02/14 09:50:11;;;;;;;6.15;1.90;;;13.80;80.60;;;;;;4995493;28;20031;-73
2022/02/14 09:52:36;;;;;;;4.78;1.52;;;13.70;80.60;;;;;;5007400;28;20431;-73
2022/02/14 09:55:04;;;;;;;5.95;1.58;;;13.80;80.80;;;;;;5015128;28;20515;-74
2022/02/14 09:57:30;;;;;;;3.05;1.52;;;13.70;80.50;;;;;;5015793;28;20421;-74
2022/02/14 09:59:56;;;;;;;9.27;1.88;;;13.70;80.80;;;;;;4982048;28;20048;-73
2022/02/14 10:02:25;;;;;;;3.97;1.60;;;13.70;80.90;;;;;;5015987;28;20037;-74
2022/02/14 10:05:13;;;;;;;6.20;2.05;;;13.70;80.90;;;;;;5015536;28;20038;-76
2022/02/14 10:07:38;;;;;;;4.75;1.65;;;14.30;80.80;;;;;;5013806;28;20117;-74
2022/02/14 10:10:08;;;;;;;2.35;1.50;;;15.30;79.00;;;;;;5011314;28;20137;-71
2022/02/14 10:12:40;;;;;;;6.97;2.15;;;16.10;75.90;;;;;;5014534;28;20128;-72
2022/02/14 10:15:07;;;;;;;5.63;1.80;;;17.00;75.10;;;;;;5006706;28;20420;-71
2022/02/14 10:17:44;;;;;;;7.60;1.77;;;17.90;72.20;;;;;;4995365;28;20037;-72
2022/02/14 10:20:15;;;;;;;3.33;1.70;;;18.80;69.90;;;;;;4995039;28;20050;-72
2022/02/14 10:23:10;;;;;;;8.60;1.92;;;18.90;67.70;;;;;;4995429;28;20122;-73
2022/02/14 10:25:41;;;;;;;3.15;1.52;;;19.70;66.30;;;;;;4986514;28;20440;-73
2022/02/14 10:28:13;;;;;;;10.23;2.08;;;19.60;65.90;;;;;;4995235;28;20026;-73
2022/02/14 10:30:59;;;;;;;3.67;1.65;;;20.00;64.40;;;;;;4993862;28;20360;-75
2022/02/14 10:33:57;;;;;;;6.05;1.63;;;19.60;63.90;;;;;;4993351;28;20019;-74
2022/02/14 10:36:37;;;;;;;4.55;1.25;;;19.20;64.00;;;;;;4986323;28;20043;-72
2022/02/14 10:39:15;;;;;;;5.00;1.65;;;18.90;63.40;;;;;;4995070;28;20031;-73
2022/02/14 10:41:43;;;;;;;5.90;1.58;;;18.30;65.30;;;;;;4994933;28;20042;-74
2022/02/14 10:47:08;;;;;;;6.28;1.70;;;17.90;67.00;;;;;;4995325;28;20050;-73
2022/02/14 10:49:34;;;;;;;4.57;1.98;;;17.60;67.50;;;;;;4994824;28;20502;-72
2022/02/14 10:52:05;;;;;;;5.13;1.85;;;17.10;68.10;;;;;;4994279;28;20042;-72
2022/02/14 10:54:43;;;;;;;5.60;1.50;;;16.70;68.90;;;;;;4994754;28;20026;-72
2022/02/14 10:57:31;;;;;;;4.00;1.70;;;16.50;69.70;;;;;;4993769;28;20034;-70
2022/02/14 11:00:05;;;;;;;7.55;1.80;;;16.10;70.90;;;;;;4994660;28;20495;-73
2022/02/14 11:02:31;;;;;;;4.07;1.80;;;15.70;71.50;;;;;;4993855;28;20487;-75
2022/02/14 11:04:58;;;;;;;5.35;1.58;;;15.70;72.20;;;;;;4975970;28;20030;-73
2022/02/14 11:07:26;;;;;;;8.15;2.47;;;15.70;72.60;;;;;;4993358;28;20031;-72
2022/02/14 11:09:54;;;;;;;3.90;1.50;;;15.40;73.10;;;;;;4993632;28;20022;-71
2022/02/14 11:12:21;;;;;;;2.08;1.27;;;15.30;73.60;;;;;;4993874;28;20041;-73
2022/02/14 11:14:54;;;;;;;8.40;2.92;;;15.40;74.00;;;;;;4994046;28;20113;-72
2022/02/14 11:17:25;;;;;;;6.18;2.20;;;15.30;74.20;;;;;;4993926;28;20121;-73
2022/02/14 11:19:56;;;;;;;4.18;1.60;;;15.20;74.60;;;;;;4993427;28;20048;-72
2022/02/14 11:22:35;;;;;;;5.30;2.30;;;15.00;75.70;;;;;;4992840;28;20046;-75
2022/02/14 11:25:17;;;;;;;5.07;1.48;;;15.00;76.30;;;;;;4993788;28;20034;-75
2022/02/14 11:27:49;;;;;;;5.38;1.40;;;15.70;74.90;;;;;;4993040;28;20439;-73
2022/02/14 11:30:17;;;;;;;10.40;1.80;;;16.10;74.60;;;;;;4993927;28;20046;-73
2022/02/14 11:33:01;;;;;;;3.80;1.48;;;16.60;73.50;;;;;;4993523;28;20038;-72
2022/02/14 11:35:26;;;;;;;5.18;2.05;;;17.30;72.70;;;;;;4993192;28;20038;-71
2022/02/14 11:37:58;;;;;;;5.90;1.88;;;17.90;70.70;;;;;;4997503;28;20034;-74
2022/02/14 11:40:41;;;;;;;6.78;2.60;;;18.70;70.40;;;;;;4992675;28;20128;-73
2022/02/14 11:43:19;;;;;;;6.28;2.58;;;19.40;68.50;;;;;;4992575;28;20103;-73
2022/02/14 11:46:18;;;;;;;8.25;3.00;;;19.70;67.50;;;;;;4992893;28;20026;-71
2022/02/14 11:48:49;;;;;;;5.78;2.03;;;20.20;66.30;;;;;;4992499;28;20335;-72
2022/02/14 11:51:17;;;;;;;3.65;1.42;;;20.10;64.60;;;;;;4992813;28;20022;-72
2022/02/14 11:53:44;;;;;;;;;;;20.50;64.00;;;;;;4992999;28;20041;-72
2022/02/14 11:56:23;;;;;;;5.93;1.80;;;20.90;64.30;;;;;;4992154;28;20354;-73
2022/02/14 11:59:12;;;;;;;8.02;1.70;;;21.20;62.20;;;;;;4992349;28;20176;-72
2022/02/14 12:01:50;;;;;;;8.07;1.95;;;20.70;62.30;;;;;;4992123;28;20026;-77
2022/02/14 12:04:37;;;;;;;;;;;20.30;61.80;;;;;;4992684;28;20552;-77
2022/02/14 12:07:23;;;;;;;5.82;1.50;;;19.20;63.10;;;;;;4992424;28;19920;-74
2022/02/14 12:09:57;;;;;;;6.57;1.50;;;18.40;64.90;;;;;;4991880;28;20072;-71
2022/02/14 12:13:03;;;;;;;5.38;1.45;;;17.90;66.20;;;;;;4992423;28;20030;-72
2022/02/14 12:21:19;;;;;;;8.02;3.60;;;16.70;69.10;;;;;;4992206;28;20061;-71
2022/02/14 12:23:51;;;;;;;5.88;2.60;;;16.50;70.10;;;;;;4991599;28;20034;-73
2022/02/14 12:26:19;;;;;;;6.00;1.63;;;16.40;70.40;;;;;;5011918;28;20037;-71
2022/02/14 12:29:31;;;;;;;6.07;1.67;;;15.80;71.60;;;;;;5011813;28;20053;-78
2022/02/14 12:31:40;;;;;;;2.67;1.17;;;15.70;72.50;;;;;;5011539;28;20372;-76
2022/02/14 12:34:06;;;;;;;6.40;1.67;;;15.60;72.90;;;;;;5011804;28;20479;-77
2022/02/14 12:36:31;;;;;;;4.93;1.67;;;15.40;73.30;;;;;;4994604;28;20136;-79
2022/02/14 12:38:57;;;;;;;4.05;1.90;;;15.20;74.00;;;;;;5011824;28;20045;-78
2022/02/14 12:41:23;;;;;;;7.25;1.55;;;15.20;74.60;;;;;;5012590;28;20045;-79
2022/02/14 12:43:51;;;;;;;3.78;1.58;;;15.20;74.90;;;;;;5011998;28;20026;-79
2022/02/14 12:46:23;;;;;;;6.68;1.85;;;15.20;75.00;;;;;;4999226;28;20456;-80
2022/02/14 12:48:51;;;;;;;7.00;2.30;;;15.20;75.10;;;;;;4997842;28;20083;-77
2022/02/14 12:51:28;;;;;;;4.70;1.48;;;15.20;75.30;;;;;;5013893;28;20026;-77
2022/02/14 12:53:57;;;;;;;6.65;3.30;;;15.20;75.40;;;;;;5013085;28;20053;-71
2022/02/14 12:56:23;;;;;;;;;;;15.30;75.50;;;;;;5011006;28;20057;-72
2022/02/14 12:59:07;;;;;;;6.03;1.87;;;15.30;75.80;;;;;;5011073;28;19920;-72
2022/02/14 13:01:41;;;;;;;4.78;1.85;;;15.40;76.20;;;;;;5010600;28;20044;-72
2022/02/14 13:04:09;;;;;;;1.85;1.48;;;15.40;75.50;;;;;;5010988;28;20030;-74
2022/02/14 13:06:43;;;;;;;3.58;1.88;;;15.30;75.60;;;;;;5011252;28;20033;-68
2022/02/14 13:09:32;;;;;;;9.27;1.63;;;15.20;75.70;;;;;;4994310;28;20018;-72